Time;durP1;ratioP1;P1;durP2;ratioP2;P2;SDS_P1;SDS_P2;PMS_P1;PMS_P2;Temp;Humidity;BMP_temperature;BMP_pressure;BME280_temperature;BME280_humidity;BME280_pressure;Samples;Min_cycle;Max_cycle;Signal;HPM_P1;HPM_P2
2021/11/14 00:01:50;;;;;;;90.95;38.50;;;;;;;1.12;78.42;102033.61;1755218;76;21410;-54
2021/11/14 00:04:57;;;;;;;89.10;37.60;;;;;;;1.10;78.22;102026.52;1789608;76;21237;-55
2021/11/14 00:08:03;;;;;;;91.82;36.50;;;;;;;1.02;77.82;102028.26;1778734;77;21346;-54
2021/11/14 00:11:13;;;;;;;109.20;40.48;;;;;;;0.94;77.67;102033.61;1773472;77;21382;-54
2021/11/14 00:14:21;;;;;;;101.53;41.33;;;;;;;0.86;77.51;102046.59;1769475;78;21233;-55
2021/11/14 00:17:29;;;;;;;102.55;42.23;;;;;;;0.78;77.31;102038.88;1768276;78;21176;-55
2021/11/14 00:20:36;;;;;;;104.97;41.37;;;;;;;0.75;77.56;102036.33;1744328;78;21379;-55
2021/11/14 00:23:42;;;;;;;96.35;40.20;;;;;;;0.78;78.02;102042.92;1773318;78;21180;-56
2021/11/14 00:26:51;;;;;;;85.40;38.80;;;;;;;0.81;78.23;102044.61;1775415;76;21413;-55
2021/11/14 00:29:59;;;;;;;100.90;45.85;;;;;;;0.82;78.33;102041.84;1758289;76;21964;-55
2021/11/14 00:33:04;;;;;;;135.32;61.80;;;;;;;0.83;78.27;102046.73;1762868;78;21228;-55
2021/11/14 00:36:11;;;;;;;191.30;79.00;;;;;;;0.82;78.28;102043.19;1761203;77;21213;-56
2021/11/14 00:39:19;;;;;;;209.90;84.75;;;;;;;0.82;78.20;102040.95;1727594;78;21218;-56
2021/11/14 00:42:25;;;;;;;155.87;66.25;;;;;;;0.78;78.02;102042.92;1764049;77;21326;-55
2021/11/14 00:45:32;;;;;;;99.13;43.60;;;;;;;0.76;77.98;102039.91;1731663;80;21542;-54
2021/11/14 00:48:42;;;;;;;86.82;38.53;;;;;;;0.76;78.05;102044.81;1762378;78;21216;-54
2021/11/14 00:51:51;;;;;;;87.53;37.40;;;;;;;0.76;78.11;102042.11;1764398;78;21355;-55
2021/11/14 00:54:56;;;;;;;89.55;35.45;;;;;;;0.74;78.09;102042.69;1717680;77;21358;-55
2021/11/14 00:58:04;;;;;;;94.70;40.10;;;;;;;0.73;78.11;102036.02;1760578;79;21737;-55
2021/11/14 01:01:11;;;;;;;86.00;38.85;;;;;;;0.70;78.10;102040.21;1759366;80;21260;-54
2021/11/14 01:04:17;;;;;;;83.60;34.08;;;;;;;0.67;78.12;102043.91;1761481;78;21304;-55
2021/11/14 01:07:23;;;;;;;67.97;30.40;;;;;;;0.65;78.16;102035.51;1759707;81;21351;-55
2021/11/14 01:10:33;;;;;;;61.28;30.70;;;;;;;0.66;78.25;102043.52;1768546;79;21353;-54
2021/11/14 01:13:40;;;;;;;94.95;39.90;;;;;;;0.67;78.45;102042.56;1764465;78;21209;-55
2021/11/14 01:16:46;;;;;;;108.90;48.05;;;;;;;0.67;78.59;102038.52;1766718;77;21248;-54
2021/11/14 01:19:52;;;;;;;112.20;48.33;;;;;;;0.67;78.69;102038.52;1765858;78;21354;-55
2021/11/14 01:23:01;;;;;;;123.58;54.55;;;;;;;0.70;78.92;102043.76;1763407;77;21351;-55
2021/11/14 01:26:06;;;;;;;129.68;58.17;;;;;;;0.67;78.97;102045.72;1747404;79;21363;-55
2021/11/14 01:29:14;;;;;;;124.75;57.03;;;;;;;0.64;79.05;102037.31;1767557;79;21207;-54
2021/11/14 01:32:22;;;;;;;111.05;54.03;;;;;;;0.60;79.11;102043.81;1764513;79;21315;-55
2021/11/14 01:35:27;;;;;;;116.60;55.23;;;;;;;0.59;79.30;102042.05;1767531;78;21745;-54
2021/11/14 01:38:33;;;;;;;124.27;56.77;;;;;;;0.59;79.26;102047.44;1770358;79;21185;-56
2021/11/14 01:41:38;;;;;;;116.00;53.48;;;;;;;0.56;79.11;102043.55;1767448;79;21335;-55
2021/11/14 01:44:44;;;;;;;110.75;52.53;;;;;;;0.55;78.95;102055.28;1768140;78;21916;-54
2021/11/14 01:47:50;;;;;;;109.48;53.68;;;;;;;0.52;78.82;102053.19;1766126;79;21177;-55
2021/11/14 01:50:56;;;;;;;108.50;51.48;;;;;;;0.45;78.82;102051.25;1706308;80;21364;-54
2021/11/14 01:54:03;;;;;;;111.35;49.42;;;;;;;0.45;78.99;102049.91;1753984;79;21378;-55
2021/11/14 01:57:11;;;;;;;101.82;48.83;;;;;;;0.44;78.89;102048.16;1761870;79;21201;-56
2021/11/14 02:00:32;;;;;;;113.72;52.25;;;;;;;0.43;78.82;102046.39;1766583;77;21280;-55
2021/11/14 02:03:39;;;;;;;91.87;42.65;;;;;;;0.41;78.73;102044.73;1765927;78;21740;-54
2021/11/14 02:06:47;;;;;;;79.75;38.55;;;;;;;0.38;78.60;102057.85;1766266;79;21205;-55
2021/11/14 02:09:53;;;;;;;72.90;36.35;;;;;;;0.35;78.53;102049.06;1745110;80;21249;-56
2021/11/14 02:12:58;;;;;;;75.95;36.63;;;;;;;0.34;78.62;102045.95;1752072;79;21374;-55
2021/11/14 02:16:04;;;;;;;79.55;39.13;;;;;;;0.36;78.76;102062.92;1755582;79;21428;-55
2021/11/14 02:19:10;;;;;;;89.45;41.35;;;;;;;0.35;78.83;102053.11;1750301;78;21704;-55
2021/11/14 02:22:15;;;;;;;78.85;39.40;;;;;;;0.33;78.72;102051.83;1755834;79;21457;-56
2021/11/14 02:25:22;;;;;;;73.40;36.38;;;;;;;0.31;78.51;102045.62;1765835;80;21749;-54
2021/11/14 02:28:30;;;;;;;101.70;48.68;;;;;;;0.28;78.60;102053.86;1757001;79;21262;-56
2021/11/14 02:31:36;;;;;;;105.20;49.18;;;;;;;0.28;78.84;102057.89;1746272;78;21362;-57
2021/11/14 02:34:41;;;;;;;102.55;51.83;;;;;;;0.29;79.09;102063.67;1745097;79;21946;-54
2021/11/14 02:37:48;;;;;;;117.08;51.65;;;;;;;0.28;79.36;102064.63;1759978;79;21283;-54
2021/11/14 02:40:54;;;;;;;100.30;48.25;;;;;;;0.30;79.34;102059.17;1738072;79;21421;-57
2021/11/14 02:44:01;;;;;;;78.10;40.63;;;;;;;0.29;79.21;102063.67;1737778;79;21412;-55
2021/11/14 02:47:06;;;;;;;79.03;35.05;;;;;;;0.25;78.97;102067.46;1757975;78;21351;-55
2021/11/14 02:50:15;;;;;;;61.33;29.35;;;;;;;0.21;78.74;102071.22;1750278;79;21268;-55
2021/11/14 02:53:22;;;;;;;64.42;30.55;;;;;;;0.16;78.51;102078.63;1692045;80;21182;-55
2021/11/14 02:56:32;;;;;;;52.43;28.75;;;;;;;0.10;78.34;102068.59;1757657;78;21223;-55
2021/11/14 02:59:37;;;;;;;54.85;29.42;;;;;;;0.09;78.54;102070.90;1756456;79;21323;-56
2021/11/14 03:02:42;;;;;;;51.60;27.02;;;;;;;0.11;78.96;102064.52;1761458;79;21326;-55
2021/11/14 03:05:51;;;;;;;70.92;39.60;;;;;;;0.15;79.27;102066.12;1760516;79;21173;-57
2021/11/14 03:08:56;;;;;;;88.70;46.90;;;;;;;0.17;79.57;102062.00;1753598;79;21433;-54
2021/11/14 03:12:04;;;;;;;101.00;52.43;;;;;;;0.18;79.86;102061.05;1763992;79;21254;-56
2021/11/14 03:15:10;;;;;;;89.42;46.80;;;;;;;0.20;79.99;102055.13;1754424;79;21840;-55
2021/11/14 03:18:16;;;;;;;76.50;40.45;;;;;;;0.22;80.03;102058.18;1763913;79;21378;-55
2021/11/14 03:21:23;;;;;;;76.60;39.40;;;;;;;0.23;79.97;102055.88;1757207;79;21280;-56
2021/11/14 03:24:29;;;;;;;80.17;41.92;;;;;;;0.22;79.89;102055.48;1768111;79;21219;-55
2021/11/14 03:27:34;;;;;;;84.05;42.98;;;;;;;0.18;79.74;102061.94;1748899;80;21363;-55
2021/11/14 03:30:41;;;;;;;72.35;36.33;;;;;;;0.17;79.93;102062.89;1758689;79;21232;-56
2021/11/14 03:33:47;;;;;;;58.92;32.58;;;;;;;0.18;80.05;102051.16;1768076;80;21351;-56
2021/11/14 03:36:54;;;;;;;68.78;33.73;;;;;;;0.18;80.14;102052.97;1729365;79;21387;-55
2021/11/14 03:40:00;;;;;;;76.67;35.98;;;;;;;0.18;80.18;102051.16;1746616;79;21232;-56
2021/11/14 03:43:06;;;;;;;83.87;41.13;;;;;;;0.17;79.93;102053.93;1773311;80;21240;-55
2021/11/14 03:46:13;;;;;;;75.08;35.30;;;;;;;0.15;79.79;102052.66;1766209;81;21184;-56
2021/11/14 03:49:21;;;;;;;71.25;34.03;;;;;;;0.13;79.61;102045.61;1731848;79;21453;-56
2021/11/14 03:52:28;;;;;;;53.70;27.85;;;;;;;0.12;79.64;102055.48;1766766;79;21405;-54
2021/11/14 03:55:33;;;;;;;50.75;26.45;;;;;;;0.11;79.56;102049.72;1755701;79;21418;-56
2021/11/14 03:58:39;;;;;;;43.80;22.85;;;;;;;0.13;79.73;102049.15;1759135;79;21412;-54
2021/11/14 04:01:45;;;;;;;46.75;23.27;;;;;;;0.12;79.67;102060.87;1762033;79;21350;-54
2021/11/14 04:04:52;;;;;;;48.23;22.25;;;;;;;0.10;79.68;102053.33;1753366;78;21362;-54
2021/11/14 04:07:59;;;;;;;42.45;22.32;;;;;;;0.09;79.95;102059.67;1765359;78;21366;-55
2021/11/14 04:11:05;;;;;;;40.23;21.15;;;;;;;0.10;80.07;102057.83;1742184;79;21401;-55
2021/11/14 04:14:10;;;;;;;33.83;20.37;;;;;;;0.12;80.16;102065.38;1763417;79;21173;-55
2021/11/14 04:17:16;;;;;;;37.23;22.60;;;;;;;0.13;80.18;102061.76;1765544;79;21370;-55
2021/11/14 04:20:22;;;;;;;43.65;22.80;;;;;;;0.14;80.24;102068.42;1764270;78;21319;-55
2021/11/14 04:23:28;;;;;;;44.58;25.25;;;;;;;0.13;80.30;102076.07;1763247;79;21339;-55
2021/11/14 04:26:33;;;;;;;52.73;26.68;;;;;;;0.14;80.27;102076.95;1743048;79;21470;-55
2021/11/14 04:29:40;;;;;;;43.65;24.43;;;;;;;0.12;80.32;102073.45;1733241;80;21560;-55
2021/11/14 04:32:46;;;;;;;43.20;24.37;;;;;;;0.11;80.44;102076.64;1728326;80;21750;-56
2021/11/14 04:35:52;;;;;;;41.70;24.63;;;;;;;0.12;80.45;102078.83;1752440;79;21383;-55
2021/11/14 04:38:57;;;;;;;41.28;23.70;;;;;;;0.12;80.54;102086.45;1755738;78;21346;-55
2021/11/14 04:42:07;;;;;;;37.85;22.82;;;;;;;0.13;80.55;102085.50;1754756;79;21362;-56
2021/11/14 04:45:14;;;;;;;45.50;24.05;;;;;;;0.13;80.44;102081.95;1729269;79;21268;-55
2021/11/14 04:48:20;;;;;;;38.42;22.67;;;;;;;0.12;80.37;102090.95;1693950;80;21377;-55
2021/11/14 04:51:26;;;;;;;44.90;23.52;;;;;;;0.09;80.28;102090.63;1755418;78;21221;-56
2021/11/14 04:54:32;;;;;;;49.60;23.57;;;;;;;0.11;80.29;102086.52;1768240;78;21223;-55
2021/11/14 04:57:38;;;;;;;44.23;24.35;;;;;;;0.12;80.28;102097.22;1765593;78;21210;-55
2021/11/14 05:00:56;;;;;;;44.77;25.85;;;;;;;0.11;80.14;102093.25;1764563;78;21733;-56
2021/11/14 05:04:02;;;;;;;43.68;24.23;;;;;;;0.12;80.09;102101.26;1750073;78;21220;-56
2021/11/14 05:07:09;;;;;;;50.38;25.23;;;;;;;0.13;79.99;102113.77;1765332;79;21339;-55
2021/11/14 05:10:17;;;;;;;92.88;42.08;;;;;;;0.14;79.91;102109.27;1746030;78;21244;-56
2021/11/14 05:13:26;;;;;;;132.65;56.13;;;;;;;0.15;79.79;102110.55;1741339;78;21290;-55
2021/11/14 05:16:32;;;;;;;91.02;39.10;;;;;;;0.16;79.65;102110.94;1752117;79;21413;-57
2021/11/14 05:19:39;;;;;;;107.37;46.20;;;;;;;0.18;79.67;102117.13;1762457;79;21248;-55
2021/11/14 05:22:46;;;;;;;70.52;35.95;;;;;;;0.21;79.76;102114.30;1769921;79;21169;-57
2021/11/14 05:25:52;;;;;;;65.45;33.28;;;;;;;0.25;79.68;102117.28;1764021;79;21421;-55
2021/11/14 05:28:58;;;;;;;59.95;30.95;;;;;;;0.26;79.69;102117.67;1759985;79;21263;-57
2021/11/14 05:32:05;;;;;;;65.42;33.92;;;;;;;0.30;79.71;102120.65;1759154;79;21212;-55
2021/11/14 05:35:11;;;;;;;72.70;39.73;;;;;;;0.34;79.78;102129.44;1761153;79;21322;-55
2021/11/14 05:38:16;;;;;;;78.10;39.73;;;;;;;0.34;79.81;102132.14;1759200;80;21240;-55
2021/11/14 05:41:21;;;;;;;78.87;43.15;;;;;;;0.39;79.81;102122.92;1777389;80;21349;-56
2021/11/14 05:44:26;;;;;;;74.53;41.18;;;;;;;0.42;79.62;102124.13;1767762;80;21982;-57
2021/11/14 05:47:34;;;;;;;72.75;36.40;;;;;;;0.44;79.41;102128.98;1767290;80;21224;-57
2021/11/14 05:55:52;;;;;;;68.02;29.12;;;;;;;0.64;79.44;102138.37;1878099;76;22246;-57
2021/11/14 06:02:12;;;;;;;110.40;46.58;;;;;;;0.70;79.44;102143.47;1804948;79;21231;-55
2021/11/14 06:05:17;;;;;;;91.57;43.83;;;;;;;0.78;79.44;102148.03;1805030;79;21374;-55
2021/11/14 06:08:23;;;;;;;75.40;36.75;;;;;;;0.85;79.49;102137.38;1804447;79;21210;-56
2021/11/14 06:11:31;;;;;;;67.37;31.33;;;;;;;0.92;79.54;102136.13;1805232;79;21303;-57
2021/11/14 06:14:38;;;;;;;71.40;30.12;;;;;;;0.99;79.49;102145.70;1804843;79;21203;-56
2021/11/14 06:17:45;;;;;;;71.20;30.10;;;;;;;1.07;79.41;102136.77;1804436;79;21208;-56
2021/11/14 06:20:50;;;;;;;86.00;36.50;;;;;;;1.15;79.35;102133.70;1804423;79;21157;-56
2021/11/14 06:23:56;;;;;;;77.22;40.52;;;;;;;1.21;79.17;102131.59;1804559;79;21871;-56
2021/11/14 06:27:04;;;;;;;86.78;41.92;;;;;;;1.26;79.05;102140.34;1804729;79;21357;-57
2021/11/14 06:30:16;;;;;;;73.92;37.33;;;;;;;1.34;78.99;102134.56;1804748;79;21188;-57
2021/11/14 06:33:22;;;;;;;62.55;35.45;;;;;;;1.40;78.94;102128.40;1788801;79;21817;-57
2021/11/14 06:36:27;;;;;;;56.80;30.70;;;;;;;1.45;78.84;102134.91;1804959;79;21284;-57
2021/11/14 06:39:33;;;;;;;46.70;26.93;;;;;;;1.52;79.08;102131.83;1805032;79;21366;-56
2021/11/14 06:42:40;;;;;;;41.53;24.50;;;;;;;1.64;79.16;102133.52;1804984;79;21919;-57
2021/11/14 06:45:45;;;;;;;44.70;24.35;;;;;;;1.76;79.16;102126.17;1805276;79;21248;-57
2021/11/14 06:48:52;;;;;;;37.25;22.40;;;;;;;1.84;79.06;102123.47;1804850;79;21870;-55
2021/11/14 06:52:07;;;;;;;44.85;24.27;;;;;;;1.93;79.03;102130.23;1804899;79;21202;-56
2021/11/14 06:55:13;;;;;;;41.28;24.57;;;;;;;2.05;79.00;102129.13;1803166;78;21220;-56
2021/11/14 06:58:22;;;;;;;42.65;24.07;;;;;;;2.10;78.84;102129.77;1803119;79;21323;-56
2021/11/14 07:01:29;;;;;;;46.13;28.32;;;;;;;2.16;78.72;102126.73;1805061;79;21196;-56
2021/11/14 07:04:35;;;;;;;52.35;27.20;;;;;;;2.23;78.86;102123.24;1805260;79;21280;-57
2021/11/14 07:07:42;;;;;;;39.23;24.80;;;;;;;2.32;78.86;102122.75;1804561;79;21564;-59
2021/11/14 07:10:48;;;;;;;35.10;20.92;;;;;;;2.39;78.89;102116.08;1761344;81;21249;-57
2021/11/14 07:13:55;;;;;;;45.80;23.83;;;;;;;2.50;78.99;102106.91;1745614;81;21240;-56
2021/11/14 07:17:01;;;;;;;64.35;32.95;;;;;;;2.60;79.08;102106.83;1761296;81;21312;-57
2021/11/14 07:20:09;;;;;;;36.25;20.20;;;;;;;2.73;79.14;102109.23;1761420;81;21359;-56
2021/11/14 07:23:15;;;;;;;53.98;32.58;;;;;;;2.84;79.12;102110.86;1761473;81;21221;-56
2021/11/14 07:26:24;;;;;;;75.90;39.00;;;;;;;2.93;79.16;102106.31;1761340;81;21353;-56
2021/11/14 07:29:35;;;;;;;126.95;51.02;;;;;;;3.01;79.18;102102.20;1761510;81;21324;-56
2021/11/14 07:32:41;;;;;;;100.55;41.73;;;;;;;3.11;79.13;102102.56;1761899;81;21695;-56
2021/11/14 07:35:48;;;;;;;47.30;24.00;;;;;;;3.21;79.09;102101.09;1761425;81;21912;-56
2021/11/14 07:38:56;;;;;;;44.18;23.62;;;;;;;3.32;79.17;102100.00;1761497;81;21825;-57
2021/11/14 07:42:03;;;;;;;40.43;23.67;;;;;;;3.45;79.23;102094.28;1761305;81;21213;-55
2021/11/14 07:45:14;;;;;;;35.92;19.17;;;;;;;3.58;79.24;102091.26;1761494;81;21351;-56
2021/11/14 07:48:20;;;;;;;42.70;22.45;;;;;;;3.69;79.12;102086.08;1745390;80;21414;-56
2021/11/14 07:51:27;;;;;;;31.80;18.12;;;;;;;3.79;79.02;102084.55;1761248;81;21197;-55
2021/11/14 07:54:37;;;;;;;32.05;17.70;;;;;;;3.91;79.00;102086.55;1760878;81;21245;-55
2021/11/14 07:57:44;;;;;;;29.00;17.82;;;;;;;3.99;78.83;102081.55;1743561;81;21366;-55
2021/11/14 08:00:51;;;;;;;32.60;19.67;;;;;;;4.06;78.75;102080.19;1793493;79;21330;-54
2021/11/14 08:03:58;;;;;;;28.20;18.00;;;;;;;4.16;78.52;102073.25;1803776;79;21243;-57
2021/11/14 08:07:06;;;;;;;33.95;19.32;;;;;;;4.23;78.22;102081.88;1803747;79;21351;-55
2021/11/14 08:10:13;;;;;;;33.40;19.20;;;;;;;4.24;77.93;102084.50;1763887;81;21338;-56
2021/11/14 08:13:20;;;;;;;29.32;17.80;;;;;;;4.29;77.96;102084.21;1727524;81;21366;-56
2021/11/14 08:16:28;;;;;;;36.38;18.95;;;;;;;4.37;78.00;102077.36;1777728;79;21683;-54
2021/11/14 08:19:34;;;;;;;36.98;19.50;;;;;;;4.48;77.91;102076.20;1784424;79;21193;-55
2021/11/14 08:22:40;;;;;;;39.18;19.00;;;;;;;4.55;77.98;102072.12;1798353;80;21267;-55
2021/11/14 08:25:48;;;;;;;34.58;19.85;;;;;;;4.69;77.89;102073.98;1800584;79;21176;-56
2021/11/14 08:28:54;;;;;;;33.70;18.25;;;;;;;4.80;77.67;102074.64;1802266;79;21678;-55
2021/11/14 08:32:00;;;;;;;34.25;18.65;;;;;;;4.87;77.45;102065.16;1802662;79;21165;-55
2021/11/14 08:35:07;;;;;;;29.87;18.90;;;;;;;4.96;77.43;102059.12;1802515;79;21892;-55
2021/11/14 08:38:13;;;;;;;30.15;18.67;;;;;;;5.07;77.27;102050.69;1772066;81;21366;-55
2021/11/14 08:41:19;;;;;;;31.37;18.37;;;;;;;5.17;77.13;102060.45;1771227;81;21362;-55
2021/11/14 08:44:25;;;;;;;31.95;18.87;;;;;;;5.24;76.83;102054.98;1771714;81;21224;-55
2021/11/14 08:47:31;;;;;;;43.38;22.17;;;;;;;5.34;76.71;102057.48;1771881;81;21370;-55
2021/11/14 08:50:36;;;;;;;37.63;21.57;;;;;;;5.42;76.52;102059.21;1770202;79;21349;-57
2021/11/14 08:53:42;;;;;;;39.35;19.62;;;;;;;5.52;76.41;102053.05;1761121;81;21402;-57
2021/11/14 08:56:48;;;;;;;32.73;18.62;;;;;;;5.62;76.19;102047.88;1760217;81;21396;-55
2021/11/14 08:59:54;;;;;;;33.15;18.57;;;;;;;5.71;76.07;102041.33;1750652;82;21671;-55
2021/11/14 09:03:01;;;;;;;34.73;19.45;;;;;;;5.83;75.90;102045.09;1776935;80;21399;-55
2021/11/14 09:06:07;;;;;;;39.00;22.22;;;;;;;5.97;75.75;102039.09;1788525;80;21801;-55
2021/11/14 09:09:15;;;;;;;39.63;22.70;;;;;;;6.09;75.49;102040.07;1766940;80;21452;-55
2021/11/14 09:12:22;;;;;;;43.92;23.10;;;;;;;6.19;75.07;102034.38;1780585;80;21399;-55
2021/11/14 09:15:31;;;;;;;37.20;20.70;;;;;;;6.27;74.80;102032.00;1721667;81;21213;-54
2021/11/14 09:18:38;;;;;;;35.83;20.45;;;;;;;6.37;74.59;102030.37;1719551;83;21292;-56
2021/11/14 09:21:47;;;;;;;34.50;20.05;;;;;;;6.45;74.29;102032.06;1725592;83;21352;-54
2021/11/14 09:24:57;;;;;;;52.13;26.73;;;;;;;6.51;73.85;102026.18;1733703;83;21272;-55
2021/11/14 09:28:04;;;;;;;46.65;25.82;;;;;;;6.56;73.50;102024.00;1792234;80;21232;-55
2021/11/14 09:31:10;;;;;;;45.80;24.60;;;;;;;6.58;73.33;102019.30;1791321;80;21228;-54
2021/11/14 09:34:16;;;;;;;48.52;23.15;;;;;;;6.67;73.36;102014.57;1790627;80;21205;-54
2021/11/14 09:37:21;;;;;;;35.48;18.77;;;;;;;6.76;73.05;102014.38;1760439;81;21763;-55
2021/11/14 09:40:27;;;;;;;35.15;18.32;;;;;;;6.81;72.88;102004.91;1760984;81;21394;-55
2021/11/14 09:43:33;;;;;;;30.82;17.32;;;;;;;6.92;72.71;102003.63;1761706;81;21229;-55
2021/11/14 09:46:42;;;;;;;34.50;19.80;;;;;;;7.03;72.37;101992.81;1762148;81;21363;-55
2021/11/14 09:49:50;;;;;;;33.50;18.95;;;;;;;7.10;71.86;101985.91;1762715;81;21382;-55
2021/11/14 09:52:57;;;;;;;43.00;21.12;;;;;;;7.19;71.48;101989.33;1761659;81;21313;-55
2021/11/14 09:56:04;;;;;;;40.15;21.50;;;;;;;7.28;71.27;101991.34;1760699;81;21710;-54
2021/11/14 09:59:11;;;;;;;37.30;19.60;;;;;;;7.41;71.14;101992.16;1762768;81;21216;-55
2021/11/14 10:02:18;;;;;;;31.85;17.45;;;;;;;7.55;70.91;101981.08;1766222;81;21192;-55
2021/11/14 10:05:28;;;;;;;30.92;17.57;;;;;;;7.66;70.48;101982.97;1765746;81;21188;-56
2021/11/14 10:08:35;;;;;;;29.37;17.35;;;;;;;7.74;69.85;101976.42;1766714;81;21224;-56
2021/11/14 10:11:49;;;;;;;34.10;18.23;;;;;;;7.85;69.71;101979.70;1733311;81;21264;-59
2021/11/14 10:15:21;;;;;;;38.42;18.40;;;;;;;7.96;69.37;101974.28;1767354;81;21358;-56
2021/11/14 10:18:28;;;;;;;34.27;18.55;;;;;;;8.06;68.98;101969.33;1766589;79;21241;-55
2021/11/14 10:21:37;;;;;;;30.37;17.12;;;;;;;8.19;68.57;101970.59;1766432;81;21182;-57
2021/11/14 10:24:41;;;;;;;32.78;16.17;;;;;;;8.31;68.19;101965.58;1766278;81;21317;-55
2021/11/14 10:27:46;;;;;;;27.20;16.55;;;;;;;8.42;67.73;101962.84;1766685;81;21798;-55
2021/11/14 10:30:53;;;;;;;29.32;16.32;;;;;;;8.49;67.00;101959.98;1766769;81;21193;-55
2021/11/14 10:34:00;;;;;;;28.27;16.42;;;;;;;8.57;66.70;101965.20;1767218;81;21282;-55
2021/11/14 10:37:06;;;;;;;29.60;16.27;;;;;;;8.66;66.49;101958.11;1782179;80;21189;-54
2021/11/14 10:40:13;;;;;;;31.00;16.45;;;;;;;8.78;66.37;101962.58;1776196;80;21225;-54
2021/11/14 10:43:22;;;;;;;27.93;15.53;;;;;;;8.86;65.82;101960.09;1757560;81;21443;-55
2021/11/14 10:46:29;;;;;;;25.72;14.50;;;;;;;8.91;65.32;101959.22;1767923;81;21841;-54
2021/11/14 10:49:34;;;;;;;23.50;15.05;;;;;;;8.95;65.18;101955.22;1767399;81;21602;-54
2021/11/14 10:52:42;;;;;;;23.52;13.13;;;;;;;9.02;64.89;101944.17;1767957;80;21382;-55
2021/11/14 10:55:58;;;;;;;21.30;13.45;;;;;;;9.07;64.66;101950.09;1767733;81;21905;-55
2021/11/14 10:59:05;;;;;;;27.50;14.55;;;;;;;9.12;64.41;101945.12;1767814;81;21276;-55
2021/11/14 11:02:11;;;;;;;27.07;13.80;;;;;;;9.20;64.31;101945.86;1772852;80;21212;-55
2021/11/14 11:05:22;;;;;;;28.92;15.63;;;;;;;9.26;63.92;101950.28;1756613;81;21370;-54
2021/11/14 11:08:30;;;;;;;28.50;15.05;;;;;;;9.36;63.73;101943.05;1773118;81;21342;-54
2021/11/14 11:11:42;;;;;;;25.57;13.95;;;;;;;9.46;63.29;101943.14;1771892;81;21165;-55
2021/11/14 11:15:10;;;;;;;26.50;14.03;;;;;;;9.51;62.64;101944.50;1773060;81;21220;-54
2021/11/14 11:18:24;;;;;;;28.52;14.05;;;;;;;9.54;62.75;101944.72;1773211;81;21342;-54
2021/11/14 11:21:38;;;;;;;28.75;13.88;;;;;;;9.59;62.22;101941.98;1773370;81;21455;-54
2021/11/14 11:24:49;;;;;;;23.15;13.25;;;;;;;9.61;62.00;101945.42;1772023;81;21323;-54
2021/11/14 11:28:01;;;;;;;26.33;13.55;;;;;;;9.67;61.82;101937.21;1758181;80;21342;-54
2021/11/14 11:31:12;;;;;;;25.68;13.70;;;;;;;9.74;61.67;101936.54;1773411;81;21845;-54
2021/11/14 11:34:21;;;;;;;24.53;12.33;;;;;;;9.86;61.54;101938.72;1773551;81;21363;-54
2021/11/14 11:37:27;;;;;;;22.55;12.50;;;;;;;9.95;61.04;101934.69;1772816;81;21181;-55
2021/11/14 11:40:35;;;;;;;24.63;12.45;;;;;;;10.02;60.93;101923.55;1773585;81;21342;-56
2021/11/14 11:43:42;;;;;;;18.75;11.38;;;;;;;10.10;60.68;101926.52;1773101;81;21460;-56
2021/11/14 11:46:55;;;;;;;22.70;11.88;;;;;;;10.14;60.33;101926.62;1772118;81;21232;-55
2021/11/14 11:50:04;;;;;;;25.97;12.35;;;;;;;10.13;60.02;101928.98;1773196;81;21220;-55
2021/11/14 11:53:13;;;;;;;20.17;11.75;;;;;;;10.16;59.93;101923.75;1773294;81;21496;-54
2021/11/14 11:56:23;;;;;;;24.77;12.65;;;;;;;10.22;59.46;101917.23;1773579;81;21867;-55
2021/11/14 11:59:38;;;;;;;22.07;11.60;;;;;;;10.23;59.42;101916.22;1773025;81;21347;-54
2021/11/14 12:02:47;;;;;;;24.90;12.35;;;;;;;10.31;59.03;101920.52;1736541;82;21173;-55
2021/11/14 12:05:56;;;;;;;26.82;13.38;;;;;;;10.32;58.83;101911.29;1738324;82;21845;-54
2021/11/14 12:09:04;;;;;;;31.23;12.55;;;;;;;10.38;58.66;101912.13;1736790;82;21853;-55
2021/11/14 12:12:11;;;;;;;21.73;12.55;;;;;;;10.44;58.33;101910.20;1737507;82;21332;-54
2021/11/14 12:15:22;;;;;;;24.55;12.05;;;;;;;10.43;57.95;101911.19;1737055;82;21270;-54
2021/11/14 12:18:28;;;;;;;23.52;11.95;;;;;;;10.48;57.60;101913.55;1737268;82;21272;-54
2021/11/14 12:21:35;;;;;;;24.10;13.48;;;;;;;10.50;57.04;101906.91;1732928;82;21315;-55
2021/11/14 12:25:00;;;;;;;22.65;11.63;;;;;;;10.50;56.80;101904.66;1737379;82;21364;-55
2021/11/14 12:28:11;;;;;;;19.75;11.60;;;;;;;10.47;56.91;101903.09;1749607;81;21338;-55
2021/11/14 12:31:28;;;;;;;26.35;12.93;;;;;;;10.45;56.80;101906.95;1760436;80;21773;-54
2021/11/14 12:34:38;;;;;;;25.05;13.30;;;;;;;10.35;56.54;101908.27;1761166;81;21376;-55
2021/11/14 12:38:01;;;;;;;24.72;13.25;;;;;;;10.30;56.71;101902.86;1756739;81;21237;-54
2021/11/14 12:41:14;;;;;;;26.23;13.68;;;;;;;10.24;56.86;101905.63;1702439;83;21319;-56
2021/11/14 12:44:20;;;;;;;26.50;13.60;;;;;;;10.21;57.16;101899.59;1721911;83;21206;-54
2021/11/14 12:47:39;;;;;;;25.10;14.00;;;;;;;10.22;57.31;101894.47;1674725;84;21442;-54
2021/11/14 12:50:50;;;;;;;29.60;14.25;;;;;;;10.27;57.36;101890.82;1752143;81;21213;-55
2021/11/14 12:54:04;;;;;;;26.60;13.62;;;;;;;10.27;57.21;101884.86;1751200;81;21362;-55
2021/11/14 12:57:19;;;;;;;26.48;14.73;;;;;;;10.29;57.26;101885.56;1760390;81;21252;-55
2021/11/14 13:00:45;;;;;;;31.30;15.18;;;;;;;10.32;57.09;101881.17;1708510;83;21253;-55
2021/11/14 13:03:51;;;;;;;33.50;17.02;;;;;;;10.38;57.29;101876.55;1742596;79;21343;-55
2021/11/14 13:06:57;;;;;;;29.92;16.27;;;;;;;10.43;57.19;101882.45;1801732;79;21343;-55
2021/11/14 13:10:05;;;;;;;27.75;14.05;;;;;;;10.44;57.16;101877.84;1801972;79;21362;-55
2021/11/14 13:13:10;;;;;;;21.12;12.70;;;;;;;10.43;57.09;101873.39;1802437;79;21730;-55
2021/11/14 13:16:21;;;;;;;39.27;14.43;;;;;;;10.39;57.05;101878.27;1771074;81;21354;-55
2021/11/14 13:19:27;;;;;;;32.85;15.80;;;;;;;10.36;57.15;101877.18;1760842;81;21199;-55
2021/11/14 13:22:33;;;;;;;35.50;16.23;;;;;;;10.29;57.22;101874.61;1761148;81;21783;-54
2021/11/14 13:25:39;;;;;;;34.67;15.72;;;;;;;10.24;57.32;101874.68;1761298;81;21369;-56
2021/11/14 13:28:47;;;;;;;38.50;15.40;;;;;;;10.14;57.35;101880.59;1762056;81;21339;-55
2021/11/14 13:32:01;;;;;;;35.15;18.50;;;;;;;10.00;57.50;101873.59;1761800;81;21224;-55
2021/11/14 13:35:05;;;;;;;40.25;20.10;;;;;;;9.86;57.79;101878.02;1763437;79;21204;-55
2021/11/14 13:38:13;;;;;;;41.75;21.25;;;;;;;9.68;58.02;101878.28;1788415;80;21279;-55
2021/11/14 13:41:25;;;;;;;34.78;17.55;;;;;;;9.52;58.27;101887.45;1790273;80;21177;-55
2021/11/14 13:44:43;;;;;;;27.20;14.63;;;;;;;9.36;58.58;101880.20;1788622;80;21332;-55
2021/11/14 13:48:06;;;;;;;33.98;13.88;;;;;;;9.21;58.90;101877.42;1788637;80;21209;-55
2021/11/14 13:51:11;;;;;;;30.43;14.40;;;;;;;9.05;59.29;101876.98;1788972;80;21375;-56
2021/11/14 13:54:18;;;;;;;29.20;12.98;;;;;;;8.88;59.68;101880.24;1755528;80;21829;-55
2021/11/14 13:57:28;;;;;;;33.88;13.32;;;;;;;8.72;60.13;101872.99;1789006;80;21355;-55
2021/11/14 14:00:36;;;;;;;29.67;13.13;;;;;;;8.55;60.57;101867.55;1788505;80;21422;-55
2021/11/14 14:03:45;;;;;;;29.55;13.62;;;;;;;8.39;61.04;101868.44;1785982;79;21359;-54
2021/11/14 14:06:50;;;;;;;33.25;15.25;;;;;;;8.23;61.43;101867.11;1773600;80;22114;-56
2021/11/14 14:10:09;;;;;;;39.80;17.55;;;;;;;8.06;61.84;101860.73;1788159;80;21355;-55
2021/11/14 14:13:18;;;;;;;45.70;22.75;;;;;;;7.90;62.23;101867.03;1788365;80;21362;-55
2021/11/14 14:16:25;;;;;;;45.45;21.48;;;;;;;7.75;62.61;101865.55;1788576;80;21343;-54
2021/11/14 14:19:35;;;;;;;42.25;19.12;;;;;;;7.64;62.96;101869.13;1783009;79;21865;-54
2021/11/14 14:22:47;;;;;;;46.60;19.60;;;;;;;7.53;63.32;101870.47;1760987;81;21267;-56
2021/11/14 14:25:57;;;;;;;42.17;18.45;;;;;;;7.39;63.64;101872.89;1788589;80;21201;-56
2021/11/14 14:29:04;;;;;;;37.38;17.87;;;;;;;7.29;63.97;101877.82;1788367;80;21344;-55